createdAt,value
2023-08-21T00:00:47.179Z,1.30
2023-08-21T00:03:14.227Z,1.38
2023-08-21T00:05:41.247Z,1.20
2023-08-21T00:08:08.974Z,1.40
2023-08-21T00:10:38.562Z,1.20
2023-08-21T00:13:05.916Z,1.73
2023-08-21T00:15:34.206Z,1.48
2023-08-21T00:18:01.174Z,1.40
2023-08-21T00:20:28.207Z,1.10
2023-08-21T00:22:55.131Z,1.13
2023-08-21T00:25:22.486Z,1.30
2023-08-21T00:27:49.417Z,1.23
2023-08-21T00:30:16.369Z,0.93
2023-08-21T00:32:44.704Z,1.15
2023-08-21T00:35:11.647Z,1.30
2023-08-21T00:37:38.646Z,1.30
2023-08-21T00:40:06.628Z,1.50
2023-08-21T00:42:33.573Z,1.30
2023-08-21T00:45:00.517Z,1.30
2023-08-21T00:47:27.450Z,0.82
2023-08-21T00:49:55.890Z,1.17
2023-08-21T00:52:22.807Z,1.20
2023-08-21T00:54:49.846Z,0.80
2023-08-21T00:57:16.796Z,1.80
2023-08-21T00:59:43.751Z,1.33
2023-08-21T01:02:10.661Z,0.80
2023-08-21T01:04:37.589Z,1.15
2023-08-21T01:07:06.098Z,0.98
2023-08-21T01:09:37.143Z,1.33
2023-08-21T01:12:07.352Z,1.05
2023-08-21T01:14:37.515Z,1.08
2023-08-21T01:17:04.588Z,1.50
2023-08-21T01:19:32.641Z,1.25
2023-08-21T01:21:59.806Z,1.08
2023-08-21T01:24:28.127Z,1.20
2023-08-21T01:26:55.048Z,1.27
2023-08-21T01:29:22.058Z,1.00
2023-08-21T01:31:58.307Z,1.13
2023-08-21T01:34:25.271Z,1.13
2023-08-21T01:36:52.215Z,0.95
2023-08-21T01:39:19.168Z,1.00
2023-08-21T01:41:47.433Z,0.75
2023-08-21T01:44:14.343Z,0.80
2023-08-21T01:46:41.265Z,1.00
2023-08-21T01:49:08.173Z,0.90
2023-08-21T01:51:35.090Z,1.20
2023-08-21T01:54:02.049Z,1.02
2023-08-21T01:56:28.950Z,0.80
2023-08-21T01:58:57.223Z,1.25
2023-08-21T02:01:24.271Z,0.90
2023-08-21T02:03:51.686Z,1.00
2023-08-21T02:06:18.569Z,0.77
2023-08-21T02:08:45.444Z,0.85
2023-08-21T02:11:12.465Z,1.13
2023-08-21T02:13:39.403Z,0.95
2023-08-21T02:16:07.787Z,0.93
2023-08-21T02:18:34.824Z,0.93
2023-08-21T02:21:01.966Z,0.75
2023-08-21T02:23:28.885Z,0.70
2023-08-21T02:25:55.790Z,0.68
2023-08-21T02:28:22.702Z,0.80
2023-08-21T02:30:49.646Z,1.00
2023-08-21T02:33:18.010Z,0.80
2023-08-21T02:35:44.986Z,0.68
2023-08-21T02:38:11.924Z,0.95
2023-08-21T02:40:38.798Z,0.80
2023-08-21T02:43:05.791Z,0.73
2023-08-21T02:45:32.722Z,0.73
2023-08-21T02:47:59.678Z,0.80
2023-08-21T02:50:28.026Z,0.75
2023-08-21T02:52:54.961Z,0.75
2023-08-21T02:55:21.855Z,0.70
2023-08-21T02:57:48.734Z,0.80
2023-08-21T03:00:15.830Z,0.60
2023-08-21T03:02:43.167Z,0.90
2023-08-21T03:05:10.414Z,0.90
2023-08-21T03:07:38.707Z,0.88
2023-08-21T03:10:06.522Z,0.75
2023-08-21T03:12:33.433Z,0.60
2023-08-21T03:15:00.358Z,0.75
2023-08-21T03:17:27.280Z,0.88
2023-08-21T03:19:54.174Z,1.00
2023-08-21T03:22:21.059Z,0.50
2023-08-21T03:24:49.350Z,0.70
2023-08-21T03:27:16.395Z,0.93
2023-08-21T03:29:43.313Z,0.88
2023-08-21T03:32:10.236Z,1.15
2023-08-21T03:34:37.188Z,0.55
2023-08-21T03:37:04.205Z,0.98
2023-08-21T03:39:31.152Z,0.43
2023-08-21T03:41:59.447Z,0.55
2023-08-21T03:44:26.371Z,0.60
2023-08-21T03:46:53.251Z,0.60
2023-08-21T03:49:20.918Z,0.40
2023-08-21T03:51:47.891Z,0.65
2023-08-21T03:54:14.873Z,0.60
2023-08-21T03:56:41.760Z,0.85
2023-08-21T03:59:10.050Z,0.60
2023-08-21T04:01:36.966Z,0.82
2023-08-21T04:04:04.184Z,0.70
2023-08-21T04:06:31.182Z,0.63
2023-08-21T04:08:58.089Z,0.50
2023-08-21T04:11:24.992Z,0.63
2023-08-21T04:13:51.884Z,0.60
2023-08-21T04:16:20.201Z,0.90
2023-08-21T04:18:47.087Z,0.57
2023-08-21T04:21:13.971Z,0.60
2023-08-21T04:23:40.870Z,0.50
2023-08-21T04:26:07.750Z,0.50
2023-08-21T04:28:34.769Z,0.50
2023-08-21T04:31:01.700Z,0.40
2023-08-21T04:33:30.608Z,0.60
2023-08-21T04:35:57.604Z,0.55
2023-08-21T04:38:24.533Z,0.60
2023-08-21T04:40:51.472Z,0.40
2023-08-21T04:43:18.398Z,0.40
2023-08-21T04:45:48.887Z,0.60
2023-08-21T04:48:15.849Z,0.50
2023-08-21T04:50:44.178Z,0.65
2023-08-21T04:53:11.343Z,0.40
2023-08-21T04:55:38.223Z,0.55
2023-08-21T04:58:05.104Z,0.30
2023-08-21T05:00:32.120Z,0.55
2023-08-21T05:02:59.118Z,0.43
2023-08-21T05:05:26.034Z,0.40
2023-08-21T05:07:54.755Z,0.55
2023-08-21T05:10:21.644Z,0.40
2023-08-21T05:12:48.772Z,0.55
2023-08-21T05:15:15.821Z,0.52
2023-08-21T05:17:42.748Z,0.40
2023-08-21T05:20:10.424Z,0.40
2023-08-21T05:22:37.634Z,0.50
2023-08-21T05:25:07.435Z,0.60
2023-08-21T05:27:34.385Z,0.63
2023-08-21T05:30:01.294Z,0.52
2023-08-21T05:32:28.327Z,0.50
2023-08-21T05:34:55.252Z,0.60
2023-08-21T05:37:22.150Z,0.30
2023-08-21T05:39:49.056Z,0.65
2023-08-21T05:42:17.339Z,0.75
2023-08-21T05:44:44.248Z,0.60
2023-08-21T05:47:11.185Z,0.75
2023-08-21T05:49:38.104Z,0.40
2023-08-21T05:52:05.069Z,0.60
2023-08-21T05:54:32.268Z,0.43
2023-08-21T05:56:59.230Z,0.60
2023-08-21T05:59:31.208Z,0.70
2023-08-21T06:01:58.129Z,0.60
2023-08-21T06:04:25.300Z,0.68
2023-08-21T06:06:52.433Z,0.80
2023-08-21T06:09:19.368Z,0.60
2023-08-21T06:11:46.252Z,0.63
2023-08-21T06:14:13.177Z,0.50
2023-08-21T06:16:41.585Z,0.88
2023-08-21T06:19:08.600Z,0.47
2023-08-21T06:21:35.489Z,1.00
2023-08-21T06:24:02.431Z,0.93
2023-08-21T06:26:29.345Z,0.47
2023-08-21T06:28:56.262Z,0.60
2023-08-21T06:31:23.239Z,0.47
2023-08-21T06:33:51.553Z,0.50
2023-08-21T06:36:20.174Z,0.55
2023-08-21T06:38:47.052Z,0.50
2023-08-21T06:41:13.966Z,0.50
2023-08-21T06:43:44.541Z,0.57
2023-08-21T06:46:12.110Z,0.52
2023-08-21T06:48:39.847Z,0.57
2023-08-21T06:51:08.097Z,0.57
2023-08-21T06:53:35.455Z,0.60
2023-08-21T06:56:02.344Z,0.80
2023-08-21T06:58:29.248Z,0.80
2023-08-21T07:00:56.326Z,0.80
2023-08-21T07:03:23.229Z,0.75
2023-08-21T07:05:54.733Z,0.40
2023-08-21T07:08:23.111Z,0.80
2023-08-21T07:10:50.115Z,0.68
2023-08-21T07:13:17.057Z,0.70
2023-08-21T07:15:44.010Z,0.80
2023-08-21T07:18:10.984Z,0.50
2023-08-21T07:20:37.914Z,0.73
2023-08-21T07:23:04.870Z,0.85
2023-08-21T07:25:33.164Z,0.63
2023-08-21T07:28:00.086Z,0.93
2023-08-21T07:30:27.016Z,0.82
2023-08-21T07:32:54.224Z,0.70
2023-08-21T07:35:21.322Z,0.80
2023-08-21T07:37:48.214Z,0.65
2023-08-21T07:40:15.114Z,0.60
2023-08-21T07:42:43.455Z,0.73
2023-08-21T07:45:10.987Z,0.90
2023-08-21T07:47:38.212Z,0.80
2023-08-21T07:50:06.497Z,0.70
2023-08-21T07:52:33.369Z,0.70
2023-08-21T07:55:00.279Z,1.02
2023-08-21T07:57:27.194Z,0.90
2023-08-21T07:59:56.112Z,0.90
2023-08-21T08:02:23.717Z,0.93
2023-08-21T08:04:50.630Z,0.95
2023-08-21T08:07:17.551Z,0.98
2023-08-21T08:09:44.736Z,1.05
2023-08-21T08:12:11.625Z,0.80
2023-08-21T08:14:39.282Z,1.05
2023-08-21T08:17:07.536Z,0.90
2023-08-21T08:19:34.744Z,0.93
2023-08-21T08:22:01.630Z,1.10
2023-08-21T08:24:28.537Z,1.10
2023-08-21T08:26:55.487Z,0.90
2023-08-21T08:29:22.390Z,0.88
2023-08-21T08:31:49.365Z,0.80
2023-08-21T08:34:17.746Z,0.70
2023-08-21T08:36:44.696Z,1.13
2023-08-21T08:39:11.633Z,0.85
2023-08-21T08:41:42.575Z,0.90
2023-08-21T08:44:09.497Z,0.75
2023-08-21T08:46:36.421Z,0.75
2023-08-21T08:49:03.330Z,0.90
2023-08-21T08:51:31.699Z,0.80
2023-08-21T08:53:59.275Z,1.00
2023-08-21T08:56:26.210Z,0.80
2023-08-21T08:58:53.145Z,1.05
2023-08-21T09:01:20.094Z,0.85
2023-08-21T09:03:47.099Z,1.05
2023-08-21T09:06:14.039Z,1.30
2023-08-21T09:08:43.797Z,0.98
2023-08-21T09:11:10.922Z,1.05
2023-08-21T09:13:37.851Z,1.15
2023-08-21T09:16:05.116Z,1.10
2023-08-21T09:18:33.699Z,1.13
2023-08-21T09:21:03.210Z,1.10
2023-08-21T09:23:30.120Z,0.90
2023-08-21T09:25:58.398Z,1.10
2023-08-21T09:28:25.341Z,1.00
2023-08-21T09:30:52.885Z,1.00
2023-08-21T09:33:20.286Z,0.85
2023-08-21T09:35:47.238Z,1.02
2023-08-21T09:38:14.215Z,1.02
2023-08-21T09:40:41.414Z,0.90
2023-08-21T09:43:10.031Z,1.20
2023-08-21T09:45:36.921Z,0.90
2023-08-21T09:48:04.514Z,0.88
2023-08-21T09:50:31.516Z,0.82
2023-08-21T09:52:58.488Z,0.88
2023-08-21T09:55:25.404Z,1.40
2023-08-21T09:57:52.298Z,1.02
2023-08-21T10:00:20.707Z,1.30
2023-08-21T10:02:50.582Z,1.38
2023-08-21T10:05:17.519Z,0.93
2023-08-21T10:07:44.947Z,1.00
2023-08-21T10:10:12.097Z,1.45
2023-08-21T10:12:39.015Z,0.82
2023-08-21T10:15:07.136Z,1.10
2023-08-21T10:17:35.427Z,0.88
2023-08-21T10:20:04.165Z,0.90
2023-08-21T10:22:41.052Z,1.08
2023-08-21T10:25:15.541Z,1.33
2023-08-21T10:27:42.645Z,1.70
2023-08-21T10:30:14.926Z,1.33
2023-08-21T10:32:47.467Z,1.30
2023-08-21T10:35:18.761Z,1.23
2023-08-21T10:38:15.711Z,1.02
2023-08-21T10:41:02.944Z,1.17
2023-08-21T10:43:39.350Z,1.05
2023-08-21T10:46:06.346Z,0.90
2023-08-21T10:48:34.680Z,0.98
2023-08-21T10:51:02.183Z,0.88
2023-08-21T10:53:29.148Z,0.77
2023-08-21T10:55:56.074Z,0.70
2023-08-21T10:58:23.026Z,1.02
2023-08-21T11:00:57.526Z,0.90
2023-08-21T11:03:24.510Z,0.70
2023-08-21T11:06:03.389Z,2.35
2023-08-21T11:08:30.349Z,84.82
2023-08-21T11:10:57.244Z,88.97
2023-08-21T11:13:24.827Z,135.68
2023-08-21T11:15:58.828Z,143.80
2023-08-21T11:18:31.174Z,102.82
2023-08-21T11:21:06.284Z,75.68
2023-08-21T11:23:33.985Z,59.90
2023-08-21T11:26:10.802Z,35.03
2023-08-21T11:28:47.296Z,33.95
2023-08-21T11:31:14.232Z,30.50
2023-08-21T11:33:41.138Z,34.55
2023-08-21T11:36:09.420Z,31.90
2023-08-21T11:38:36.385Z,33.28
2023-08-21T11:41:03.729Z,28.52
2023-08-21T11:43:37.255Z,27.23
2023-08-21T11:46:04.413Z,27.65
2023-08-21T11:48:31.409Z,23.23
2023-08-21T11:50:58.339Z,22.23
2023-08-21T11:53:36.577Z,19.52
2023-08-21T11:56:03.574Z,20.02
2023-08-21T11:58:30.494Z,18.52
2023-08-21T12:01:04.172Z,17.23
2023-08-21T12:03:31.214Z,15.43
2023-08-21T12:05:58.186Z,14.85
2023-08-21T12:08:25.156Z,13.82
2023-08-21T12:10:53.458Z,14.10
2023-08-21T12:13:20.366Z,13.35
2023-08-21T12:15:47.279Z,11.48
2023-08-21T12:18:14.290Z,12.07
2023-08-21T12:20:41.319Z,10.88
2023-08-21T12:23:08.220Z,9.13
2023-08-21T12:25:35.138Z,8.68
2023-08-21T12:28:09.482Z,9.98
2023-08-21T12:30:37.136Z,9.38
2023-08-21T12:33:20.453Z,7.82
2023-08-21T12:35:52.165Z,7.35
2023-08-21T12:38:19.202Z,7.15
2023-08-21T12:40:46.143Z,7.35
2023-08-21T12:43:14.415Z,7.40
2023-08-21T12:45:41.397Z,7.10
2023-08-21T12:48:08.372Z,7.30
2023-08-21T12:50:35.342Z,7.13
2023-08-21T12:53:02.255Z,5.97
2023-08-21T12:55:29.629Z,5.80
2023-08-21T12:57:56.868Z,6.18
2023-08-21T13:00:25.233Z,5.40
2023-08-21T13:02:52.220Z,5.22
2023-08-21T13:05:19.167Z,4.97
2023-08-21T13:07:46.104Z,5.13
2023-08-21T13:10:13.022Z,5.20
2023-08-21T13:12:40.213Z,4.10
2023-08-21T13:15:07.966Z,4.60
2023-08-21T13:17:36.346Z,4.68
2023-08-21T13:20:03.824Z,5.32
2023-08-21T13:22:41.078Z,4.57
2023-08-21T13:25:08.742Z,4.57
2023-08-21T13:27:35.738Z,4.55
2023-08-21T13:30:02.751Z,4.32
2023-08-21T13:32:30.371Z,4.88
2023-08-21T13:34:58.688Z,4.68
2023-08-21T13:37:28.210Z,4.40
2023-08-21T13:39:55.329Z,4.30
2023-08-21T13:42:22.305Z,3.83
2023-08-21T13:44:49.197Z,4.30
2023-08-21T13:47:16.147Z,3.53
2023-08-21T13:49:43.070Z,3.42
2023-08-21T13:52:11.353Z,4.20
2023-08-21T13:54:38.265Z,4.07
2023-08-21T13:57:05.293Z,3.03
2023-08-21T13:59:33.202Z,3.45
2023-08-21T14:02:00.155Z,3.17
2023-08-21T14:04:27.244Z,2.72
2023-08-21T14:06:54.220Z,2.97
2023-08-21T14:09:22.496Z,3.60
2023-08-21T14:11:49.393Z,2.63
2023-08-21T14:14:16.295Z,3.58
2023-08-21T14:16:43.214Z,3.30
2023-08-21T14:19:10.131Z,3.13
2023-08-21T14:21:37.046Z,3.17
2023-08-21T14:24:04.409Z,2.33
2023-08-21T14:26:32.692Z,3.00
2023-08-21T14:28:59.612Z,2.90
2023-08-21T14:31:26.533Z,2.42
2023-08-21T14:33:53.440Z,3.13
2023-08-21T14:36:20.365Z,2.42
2023-08-21T14:38:47.311Z,3.08
2023-08-21T14:41:14.189Z,2.50
2023-08-21T14:43:42.491Z,2.28
2023-08-21T14:46:09.455Z,2.83
2023-08-21T14:48:36.459Z,2.28
2023-08-21T14:51:03.517Z,1.80
2023-08-21T14:53:30.440Z,1.98
2023-08-21T14:55:57.424Z,2.53
2023-08-21T14:58:24.781Z,2.40
2023-08-21T15:00:56.206Z,1.80
2023-08-21T15:03:23.277Z,2.00
2023-08-21T15:05:50.278Z,1.80
2023-08-21T15:08:17.201Z,2.10
2023-08-21T15:10:44.112Z,1.77
2023-08-21T15:13:11.005Z,1.90
2023-08-21T15:15:37.926Z,2.40
2023-08-21T15:18:06.505Z,2.22
2023-08-21T15:20:33.465Z,1.60
2023-08-21T15:23:00.374Z,1.90
2023-08-21T15:25:27.349Z,1.75
2023-08-21T15:27:54.267Z,1.77
2023-08-21T15:30:21.300Z,1.65
2023-08-21T15:32:48.234Z,1.70
2023-08-21T15:35:16.614Z,1.80
2023-08-21T15:37:43.596Z,1.90
2023-08-21T15:40:10.923Z,1.52
2023-08-21T15:42:38.181Z,1.95
2023-08-21T15:45:06.612Z,1.60
2023-08-21T15:47:46.308Z,1.58
2023-08-21T15:50:16.478Z,1.35
2023-08-21T15:52:43.397Z,1.65
2023-08-21T15:55:10.433Z,1.55
2023-08-21T15:57:37.363Z,1.85
2023-08-21T16:00:04.657Z,1.42
2023-08-21T16:02:31.645Z,1.60
2023-08-21T16:04:58.603Z,1.55
2023-08-21T16:07:26.985Z,1.60
2023-08-21T16:09:53.897Z,1.80
2023-08-21T16:12:20.798Z,1.95
2023-08-21T16:14:47.693Z,1.75
2023-08-21T16:17:14.602Z,1.70
2023-08-21T16:19:41.509Z,2.03
2023-08-21T16:22:08.411Z,1.75
2023-08-21T16:24:36.701Z,1.65
2023-08-21T16:27:03.784Z,1.50
2023-08-21T16:29:30.677Z,1.63
2023-08-21T16:31:57.636Z,1.88
2023-08-21T16:34:24.642Z,1.85
2023-08-21T16:36:51.527Z,1.35
2023-08-21T16:39:18.426Z,1.20
2023-08-21T16:41:46.738Z,1.92
2023-08-21T16:44:13.668Z,1.90
2023-08-21T16:46:40.547Z,1.63
2023-08-21T16:49:07.488Z,1.83
2023-08-21T16:51:34.380Z,2.03
2023-08-21T16:54:01.372Z,1.73
2023-08-21T16:56:28.288Z,1.63
2023-08-21T16:58:56.600Z,1.80
2023-08-21T17:01:23.560Z,1.77
2023-08-21T17:03:50.560Z,1.60
2023-08-21T17:06:17.549Z,1.63
2023-08-21T17:08:44.466Z,2.05
2023-08-21T17:11:11.392Z,1.80
2023-08-21T17:13:38.297Z,1.67
2023-08-21T17:16:06.792Z,1.77
2023-08-21T17:18:33.716Z,2.00
2023-08-21T17:21:00.612Z,1.70
2023-08-21T17:23:27.555Z,1.48
2023-08-21T17:25:54.461Z,1.40
2023-08-21T17:28:21.377Z,1.33
2023-08-21T17:30:48.275Z,1.38
2023-08-21T17:33:16.649Z,1.60
2023-08-21T17:35:43.599Z,1.77
2023-08-21T17:38:10.669Z,1.90
2023-08-21T17:40:37.576Z,1.50
2023-08-21T17:43:04.657Z,1.48
2023-08-21T17:45:31.599Z,1.23
2023-08-21T17:47:58.606Z,1.55
2023-08-21T17:50:27.042Z,1.67
2023-08-21T17:52:54.086Z,1.42
2023-08-21T17:55:21.010Z,1.20
2023-08-21T17:57:48.108Z,1.42
2023-08-21T18:00:16.178Z,1.50
2023-08-21T18:02:43.110Z,1.50
2023-08-21T18:05:10.256Z,1.40
2023-08-21T18:07:38.747Z,1.48
2023-08-21T18:10:07.338Z,1.77
2023-08-21T18:12:34.327Z,1.27
2023-08-21T18:15:02.533Z,1.55
2023-08-21T18:17:29.472Z,1.40
2023-08-21T18:19:56.566Z,1.50
2023-08-21T18:22:23.493Z,1.35
2023-08-21T18:24:51.906Z,1.42
2023-08-21T18:27:18.796Z,0.98
2023-08-21T18:29:45.742Z,1.23
2023-08-21T18:32:12.645Z,1.30
2023-08-21T18:34:39.644Z,1.00
2023-08-21T18:37:07.861Z,1.30
2023-08-21T18:39:34.911Z,1.25
2023-08-21T18:42:03.220Z,1.55
2023-08-21T18:44:30.217Z,1.48
2023-08-21T18:46:58.269Z,1.10
2023-08-21T18:49:25.185Z,1.27
2023-08-21T18:51:52.146Z,1.25
2023-08-21T18:54:19.115Z,0.95
2023-08-21T18:56:46.063Z,1.33
2023-08-21T18:59:14.312Z,1.40
2023-08-21T19:01:41.258Z,0.90
2023-08-21T19:04:08.162Z,1.30
2023-08-21T19:06:35.039Z,1.25
2023-08-21T19:09:01.958Z,1.35
2023-08-21T19:11:28.846Z,1.20
2023-08-21T19:13:55.724Z,1.00
2023-08-21T19:16:24.114Z,1.48
2023-08-21T19:18:51.057Z,1.40
2023-08-21T19:21:17.998Z,1.25
2023-08-21T19:23:44.892Z,1.83
2023-08-21T19:26:11.845Z,1.20
2023-08-21T19:28:38.773Z,1.15
2023-08-21T19:31:08.708Z,1.15
2023-08-21T19:33:36.997Z,1.40
2023-08-21T19:36:11.176Z,1.30
2023-08-21T19:38:38.125Z,1.20
2023-08-21T19:41:09.991Z,1.63
2023-08-21T19:43:36.979Z,1.55
2023-08-21T19:46:03.965Z,1.50
2023-08-21T19:48:30.957Z,1.98
2023-08-21T19:50:59.288Z,1.42
2023-08-21T19:53:26.332Z,1.20
2023-08-21T19:55:55.138Z,1.10
2023-08-21T19:58:23.659Z,1.23
2023-08-21T20:00:50.539Z,1.60
2023-08-21T20:03:17.521Z,1.85
2023-08-21T20:05:44.511Z,4.15
2023-08-21T20:08:12.806Z,18.77
2023-08-21T20:10:39.887Z,6.32
2023-08-21T20:13:06.937Z,6.75
2023-08-21T20:15:33.956Z,5.97
2023-08-21T20:18:00.948Z,6.03
2023-08-21T20:20:27.909Z,4.53
2023-08-21T20:22:54.854Z,2.85
2023-08-21T20:25:23.388Z,3.03
2023-08-21T20:27:50.336Z,3.30
2023-08-21T20:30:17.480Z,3.17
2023-08-21T20:32:44.470Z,2.90
2023-08-21T20:35:11.384Z,2.35
2023-08-21T20:37:38.556Z,3.05
2023-08-21T20:40:06.815Z,2.45
2023-08-21T20:42:35.206Z,2.28
2023-08-21T20:45:02.205Z,2.28
2023-08-21T20:47:29.204Z,2.15
2023-08-21T20:49:56.135Z,2.13
2023-08-21T20:52:23.052Z,2.05
2023-08-21T20:54:49.989Z,1.45
2023-08-21T20:57:16.908Z,1.67
2023-08-21T20:59:45.152Z,1.83
2023-08-21T21:02:12.135Z,1.63
2023-08-21T21:04:39.163Z,1.83
2023-08-21T21:07:06.988Z,1.80
2023-08-21T21:09:33.926Z,1.50
2023-08-21T21:12:00.865Z,1.80
2023-08-21T21:14:27.834Z,1.30
2023-08-21T21:16:56.147Z,1.30
2023-08-21T21:19:23.164Z,1.15
2023-08-21T21:21:50.140Z,1.33
2023-08-21T21:24:17.038Z,1.35
2023-08-21T21:26:43.927Z,1.30
2023-08-21T21:29:10.799Z,1.30
2023-08-21T21:31:37.680Z,1.60
2023-08-21T21:34:05.959Z,1.10
2023-08-21T21:36:32.866Z,1.45
2023-08-21T21:39:01.092Z,1.20
2023-08-21T21:41:27.973Z,1.35
2023-08-21T21:43:54.887Z,1.15
2023-08-21T21:46:25.062Z,1.00
2023-08-21T21:48:51.969Z,1.25
2023-08-21T21:51:20.307Z,1.08
2023-08-21T21:53:47.219Z,1.10
2023-08-21T21:56:14.171Z,1.50
2023-08-21T21:58:41.090Z,1.30
2023-08-21T22:01:08.043Z,1.20
2023-08-21T22:03:35.085Z,1.13
2023-08-21T22:06:02.072Z,1.40
2023-08-21T22:08:30.391Z,1.60
2023-08-21T22:10:57.304Z,1.42
2023-08-21T22:13:24.315Z,0.95
2023-08-21T22:15:51.308Z,1.05
2023-08-21T22:18:18.215Z,1.20
2023-08-21T22:20:45.194Z,0.80
2023-08-21T22:23:12.122Z,1.05
2023-08-21T22:25:40.377Z,1.10
2023-08-21T22:28:07.265Z,1.17
2023-08-21T22:30:34.197Z,1.30
2023-08-21T22:33:01.164Z,1.10
2023-08-21T22:35:28.151Z,1.15
2023-08-21T22:37:55.111Z,1.45
2023-08-21T22:40:21.974Z,1.23
2023-08-21T22:42:50.205Z,0.80
2023-08-21T22:45:17.137Z,1.02
2023-08-21T22:47:45.021Z,1.25
2023-08-21T22:50:11.927Z,1.38
2023-08-21T22:52:38.855Z,1.10
2023-08-21T22:55:06.752Z,1.33
2023-08-21T22:57:33.688Z,1.00
2023-08-21T23:00:01.968Z,1.08
2023-08-21T23:02:28.891Z,1.00
2023-08-21T23:04:55.815Z,1.00
2023-08-21T23:07:22.707Z,1.00
2023-08-21T23:09:49.605Z,1.13
2023-08-21T23:12:16.509Z,1.08
2023-08-21T23:14:43.390Z,0.93
2023-08-21T23:17:11.713Z,1.00
2023-08-21T23:19:38.624Z,0.93
2023-08-21T23:22:05.677Z,1.30
2023-08-21T23:24:32.755Z,0.90
2023-08-21T23:26:59.650Z,0.95
2023-08-21T23:29:26.587Z,1.05
2023-08-21T23:31:53.504Z,0.90
2023-08-21T23:34:21.790Z,1.05
2023-08-21T23:36:48.726Z,0.85
2023-08-21T23:39:15.646Z,1.23
2023-08-21T23:41:42.570Z,1.02
2023-08-21T23:44:09.494Z,1.10
2023-08-21T23:46:36.423Z,0.85
2023-08-21T23:49:03.352Z,0.93
2023-08-21T23:51:31.682Z,0.90
2023-08-21T23:53:58.584Z,0.70
2023-08-21T23:56:25.472Z,0.98
2023-08-21T23:58:52.363Z,1.05
